MHTMANCHESTER BOSTON RGNL
METARs for airports near MHT, sorted by distance:
N 0 nm 266' KMHT 172253Z 24004KT 9SM -TSRA FEW028CB FEW060 OVC110 27/23 A2978
S 9 nm 200' KASH 172324Z VRB06KT 1 3/4SM VCTS +RA BR FEW021 BKN046 OVC110 23/23 A2982
N 16 nm 341' KCON 172251Z 23006KT 10SM -RA SCT110 26/21 A2979
SE 18 nm 147' KLWM 172254Z 21008KT 10SM SCT040CB 31/22 A2979
W 26 nm 1039' KAFN 172300Z 19003KT 5SM -RA BR FEW070 BKN100 OVC110 23/22 A2985
SW 26 nm 344' KFIT 172324Z 00000KT 5SM -RA BR FEW015 BKN110 23/23 A2983
E 28 nm 100' KPSM 172255Z 16006KT 10SM FEW040 OVC130 27/21 A2975
S 28 nm 132' KBED 172316Z 23011G16KT 10SM VCTS FEW034 BKN080 BKN110 29/22 A2979
NE 30 nm 322' KDAW 172251Z 00000KT 10SM CLR 31/22 A2977
SE 31 nm 107' KBVY 172253Z 18009KT 10SM BKN046 28/22 A2977
W 36 nm 488' KEEN 172328Z 00000KT 10SM BKN013 BKN100 23/22 A2982
N 38 nm 545' KLCI 172256Z 23006KT 10SM CLR 26/22 A2980
SE 39 nm 19' KBOS 172254Z 20013KT 10SM FEW035 BKN140 BKN250 28/22 A2979
NE 42 nm 244' KSFM 172256Z VRB03KT 10SM CLR 27/21 A2978
SW 43 nm 555' KORE 172252Z 30003KT 7SM -RA 22/21 A2985
SW 44 nm 1009' KORH 172254Z 29014G23KT 8SM TSRA SCT017 BKN036CB OVC050 22/20 A2986
S 46 nm 49' KOWD 172253Z 17008KT 10SM CLR 29/24 A2979
NW 53 nm 577' KVSF 172254Z 00000KT 10SM CLR 24/22 A2982
NW 56 nm 603' KLEB 172253Z 17008KT 10SM CLR 26/22 A2980
SE 60 nm 8' KGHG 172315Z 21007G15KT 10SM FEW021 28/23 A2979
S 60 nm 440' KSFZ 172325Z VRB04KT SCT023 26/24 A2983
NE 65 nm 75' KPWM 172251Z 18007KT 10SM SCT050 BKN120 26/19 A2976
SW 65 nm 241' KCEF 172255Z 00000KT 3SM -RA BR FEW005 BKN035 OVC080 22/20 A2982
S 66 nm 41' KTAN 172252Z VRB05KT 8SM BKN018 OVC022 28/24 A2980
N 67 nm 454' KIZG 172254Z 23003KT 10SM CLR 24/22 A2979
SE 69 nm 148' KPYM 172252Z 21009KT 10SM OVC015 28/24 A2982
S 72 nm 54' KPVD 172251Z 20006KT 10SM SCT023 SCT130 BKN250 27/24 A2981
SW 73 nm 270' KBAF 172253Z 00000KT 5SM RA BR FEW005 BKN090 OVC110 23/22 A2984
SE 74 nm 7' KPVC 172256Z 21007KT 10SM SCT017 BKN022 BKN034 26/23 A2984
NW 75 nm 787' KRUT 172256Z 20006KT 10SM SCT037 25/21 A2981
W 77 nm 653' KAQW 172312Z 13003KT SCT005 OVC110 23/23 A2983
S 78 nm 79' KEWB 172253Z 22010G19KT 6SM BR OVC009 27/26 A2982
SW 78 nm 246' KIJD 172252Z 00000KT 5SM -RA BR FEW026 SCT075 BKN110 26/24 A2983
W 79 nm 826' KDDH 172254Z 00000KT 10SM -RA FEW060 FEW075 SCT120 23/21 A2983
S 80 nm 18' KOQU 172150Z 22008KT 10SM BKN016 28/25 A2982
SW 81 nm 173' KBDL 172320Z 06006KT 7SM FEW022 SCT036 OVC055 24/22 A2982
NE 83 nm 287' KLEW 172256Z 04003KT 10SM FEW050 25/23 A2979
S 84 nm 171' KUUU 172323Z VRB04KT 2SM BR OVC002 24/23 A2982
N 86 nm 1072' KHIE 172252Z 00000KT 10SM FEW011 BKN030 OVC038 23/21 A2982
SE 86 nm 130' KFMH 172256Z 23010KT 5SM BR OVC007 26/24 A2984
NE 87 nm 74' KBXM 172315Z 21004KT 10SM CLR 23/20 A2981
W 87 nm 1188' KPSF 172327Z 00000KT 10SM SCT005 BKN065 OVC110 22/21 A2985
SW 89 nm 18' KHFD 172323Z 04010KT 10SM FEW020 OVC032 25/21 A2981
NW 90 nm 1165' KMPV 172321Z 00000KT 3SM -RA BR FEW044 OVC060 21/19 A2987
SE 91 nm 54' KHYA 172303Z 23014G20KT 5SM BR BKN006 OVC012 26/25 A2983
S 96 nm 81' KWST 172305Z 21007KT 4SM BR BKN004 25/23 A2981
NE 97 nm 70' KIWI 172253Z 22005KT 10SM CLR 27/20 A2979
W 98 nm 328' KGFL 172253Z 20007KT 10SM FEW060 FEW100 24/22 A2980
SE 98 nm 63' KCQX 172252Z 21008G20KT 5SM BR OVC004 27/25 A2984
N 99 nm 1161' KBML 172252Z 00000KT 10SM BKN048 OVC075 23/22 A2983
TAFs for airports near MHT, sorted by distance:
N 0 nm 266' KMHT KMHT 171749Z 1718/1818 19010KT P6SM SCT040 BKN200
  FM172100 20007KT P6SM -SHRA BKN050
  TEMPO 1721/1723 25015G30KT 3SM +TSRA BR SCT020CB OVC040
  FM180100 VRB03KT P6SM BKN080
  FM181400 29007KT P6SM BKN100
N 16 nm 341' KCON TAF KCON 171749Z 1718/1818 16008G15KT P6SM SCT040 BKN060
  FM172000 22007KT P6SM -SHRA BKN050
  TEMPO 1721/1723 25015G30KT 3SM +TSRA BR SCT020CB OVC040
  FM180100 VRB03KT P6SM BKN060
  FM181400 29008KT P6SM BKN080
E 28 nm 100' KPSM KPSM 171749Z 1718/1818 21007KT P6SM SCT040 BKN200
  FM172200 19005KT P6SM -SHRA BKN040
  FM180200 22004KT P6SM BKN060
  FM181400 28007KT P6SM BKN080
S 28 nm 132' KBED TAF KBED 171726Z 1718/1818 21008KT P6SM SCT120
  FM172300 21008KT P6SM VCSH BKN050
  TEMPO 1723/1802 2SM +TSRA OVC015CB
  FM180200 25007KT P6SM VCSH OVC040
  FM180600 22006KT P6SM BKN050
  FM181300 28008KT P6SM BKN050
SE 39 nm 19' KBOS TAF
  AMD KBOS 172101Z 1721/1824 19010KT P6SM BKN140
  FM180000 22011KT P6SM VCSH BKN050
  TEMPO 1800/1802 3SM TSRA BR OVC020CB
  FM180600 23006KT P6SM BKN090
  FM181000 24005KT P6SM BKN020
  FM181400 29010KT P6SM BKN050
SW 44 nm 1009' KORH KORH 172154Z 1722/1818 19010KT P6SM VCSH SCT040
  FM172300 19010KT 3SM -TSRA BR BKN040CB
  TEMPO 1723/1724 29025G45KT 1SM +TSRA BR OVC010CB
  FM180200 27007KT P6SM VCSH OVC060
  FM180800 27008KT P6SM BKN040
  FM181600 30010KT P6SM SCT130
NW 56 nm 603' KLEB KLEB 172001Z 1720/1818 18005KT P6SM FEW070 FEW090 BKN110
  FM180100 VRB02KT P6SM BKN060
  FM180800 VRB02KT 2SM BR BKN001
  FM181200 30007KT P6SM SCT050 BKN200
NE 65 nm 75' KPWM TAF
  AMD KPWM 172003Z 1720/1818 19016G26KT P6SM SCT050
  FM172200 19006KT P6SM -SHRA BKN040 OVC100
  FM180300 VRB03KT 5SM BR BKN007
  TEMPO 1807/1810 2SM BR BKN003
  FM181100 29006KT P6SM BKN100
SW 65 nm 241' KCEF TAF KCEF 171710Z 1717/1823 21009KT 9999 FEW045 SCT080 SCT200 QNH2974INS
  BECMG 1718/1719 21010G20KT 9999 VCTS BKN060CB BKN120 QNH2966INS
  TEMPO 1720/1802 27030G40KT 1200 +TSRA BKN025CB BKN060
  BECMG 1801/1802 27010G20KT 6000 -SHRA SCT018 BKN050 OVC130 520303 QNH2965INS
  TEMPO 1802/1804 32010G20KT 2400 SHRA BKN015 OVC050
  BECMG 1804/1805 VRB06KT 9999 NSW SCT007 SCT015 BKN140 QNH2980INS
  BECMG 1813/1814 30009KT 9999 FEW007 SCT020 BKN030 QNH2983INS
  BECMG 1816/1817 30012KT 9999 SCT030 BKN210 QNH2988INS TX34/1721Z TN22/1809Z
S 72 nm 54' KPVD KPVD 172104Z 1721/1818 18012KT P6SM SCT025
  FM172230 18012KT P6SM BKN020
  FM180100 23007KT P6SM VCSH BKN015
  FM180800 22005KT P6SM VCSH BKN015
  FM181200 27005KT P6SM BKN015
  FM181500 29007KT P6SM BKN040
SW 73 nm 270' KBAF TAF
  AMD KBAF 172118Z 1721/1818 19008KT 6SM -TSRA BKN040CB
  TEMPO 1721/1722 29020G35KT 3SM TSRA BR OVC020CB
  FM172200 20008KT 4SM -SHRA BR BKN040
  FM180000 26005KT P6SM VCSH OVC060
  FM180500 00000KT P6SM BKN070
  FM181200 32006KT P6SM BKN060
NW 75 nm 787' KRUT KRUT 171737Z 1718/1818 23006KT P6SM VCTS BKN050CB
  FM171900 23007KT P6SM VCSH BKN050
  FM180000 18004KT P6SM VCSH BKN050
  FM180600 14004KT P6SM BKN050
  FM181100 00000KT P6SM SCT050
  FM181500 29006KT P6SM FEW060
SW 81 nm 173' KBDL KBDL 172056Z 1721/1824 19012KT P6SM BKN040
  TEMPO 1723/1801 2SM +TSRA BR OVC015CB
  FM180300 19003KT P6SM BKN060
  FM181200 32006KT P6SM BKN050
  FM182000 30009KT P6SM FEW200
N 86 nm 1072' KHIE KHIE 172005Z 1720/1818 08003KT P6SM BKN050
  TEMPO 1720/1723 3SM +TSRA BR SCT020CB OVC040
  FM180100 VRB03KT P6SM BKN035
  FM180700 VRB02KT 1/2SM FG BKN001
  FM181200 28006KT P6SM BKN050
SE 86 nm 130' KFMH TAF KFMH 171726Z 1718/1818 22010KT P6SM SCT250
  FM172200 22012KT P6SM BKN015
  FM180000 23012G21KT 3SM BR BKN003
  FM180500 22008KT 2SM BR VCSH BKN003
  FM181200 24006KT P6SM VCSH BKN008
  FM181500 26007KT P6SM BKN015
  AMD NOT SKED
W 87 nm 1188' KPSF TAF COR KPSF 172212Z 1722/1818 VRB05KT P6SM SCT035 BKN050
  TEMPO 1722/1723 4SM -RA SCT005 BKN060
  FM172300 VRB03KT 6SM -SHRA BR BKN025 OVC060
  FM180600 VRB03KT P6SM BKN080
  FM181000 27005KT P6SM SCT150
NW 90 nm 1165' KMPV KMPV 171737Z 1718/1818 23008G14KT P6SM VCTS BKN060CB
  FM172100 25005KT P6SM VCSH OVC060
  FM180500 00000KT P6SM BKN060
  FM181400 30005KT P6SM SCT060
  FM181700 31010KT P6SM SCT060
SE 91 nm 54' KHYA TAF KHYA 171726Z 1718/1818 20011KT P6SM SCT250
  FM172100 20013KT P6SM BKN015
  FM172300 21014G22KT P6SM BKN008
  FM180200 23013G22KT 3SM BR BKN003
  FM180900 22009KT 5SM -SHRA BR OVC003
  FM181600 26008KT P6SM BKN020
W 98 nm 328' KGFL KGFL 171730Z 1718/1818 23008KT P6SM VCSH SCT050 BKN100
  TEMPO 1720/1724 3SM -TSRA BR BKN040CB
  FM180000 24005KT P6SM -SHRA OVC150
  FM180600 VRB03KT P6SM SCT100
  FM180800 VRB02KT 6SM BR FEW250

Shortcut to this page: http://wxbay.com.

Data may contain errors.